Time;durP1;ratioP1;P1;durP2;ratioP2;P2;SDS_P1;SDS_P2;PMS_P1;PMS_P2;Temp;Humidity;BMP_temperature;BMP_pressure;BME280_temperature;BME280_humidity;BME280_pressure;Samples;Min_cycle;Max_cycle;Signal;HPM_P1;HPM_P2
2022/08/03 00:02:15;;;;;;;7.05;2.95;;;;;;;;;;5007886;28;20121;-60
2022/08/03 00:04:42;;;;;;;11.52;3.60;;;;;;;;;;5019372;28;20034;-59
2022/08/03 00:07:09;;;;;;;8.27;2.80;;;;;;;;;;5016976;28;20048;-61
2022/08/03 00:09:36;;;;;;;15.95;3.83;;;;;;;;;;5026090;28;20070;-60
2022/08/03 00:12:03;;;;;;;9.82;2.85;;;;;;;;;;5022470;28;20076;-59
2022/08/03 00:14:30;;;;;;;13.13;3.40;;;;;;;;;;5006868;28;20049;-59
2022/08/03 00:16:58;;;;;;;9.60;3.03;;;;;;;;;;5029795;28;20041;-59
2022/08/03 00:19:25;;;;;;;12.63;3.40;;;;;;;;;;5013338;28;20018;-52
2022/08/03 00:21:52;;;;;;;12.95;3.47;;;;;;;;;;5017828;28;20037;-55
2022/08/03 00:24:19;;;;;;;14.05;3.55;;;;;;;;;;5020716;28;20468;-58
2022/08/03 00:26:46;;;;;;;10.05;3.50;;;;;;;;;;5020243;28;20026;-60
2022/08/03 00:29:13;;;;;;;8.95;3.65;;;;;;;;;;5021343;28;20041;-60
2022/08/03 00:31:40;;;;;;;12.38;3.60;;;;;;;;;;5019399;28;20799;-59
2022/08/03 00:34:07;;;;;;;9.40;3.83;;;;;;;;;;5018744;28;20053;-56
2022/08/03 00:36:34;;;;;;;14.52;4.10;;;;;;;;;;5024660;28;20499;-59
2022/08/03 00:39:01;;;;;;;9.57;3.55;;;;;;;;;;5028652;28;20026;-57
2022/08/03 00:41:28;;;;;;;12.82;4.10;;;;;;;;;;5030177;28;20061;-57
2022/08/03 00:43:55;;;;;;;15.60;4.53;;;;;;;;;;5013568;28;20030;-54
2022/08/03 00:46:22;;;;;;;12.40;4.22;;;;;;;;;;5032829;28;20059;-54
2022/08/03 00:48:50;;;;;;;13.52;4.35;;;;;;;;;;5014613;28;20037;-58
2022/08/03 00:51:17;;;;;;;13.02;4.32;;;;;;;;;;5013018;28;20025;-58
2022/08/03 00:53:44;;;;;;;12.18;4.72;;;;;;;;;;5024421;28;20021;-53
2022/08/03 00:56:15;;;;;;;17.35;4.68;;;;;;;;;;5031333;28;20088;-54
2022/08/03 00:58:44;;;;;;;20.90;5.97;;;;;;;;;;5032080;28;20052;-57
2022/08/03 01:01:11;;;;;;;20.60;7.30;;;;;;;;;;5031422;28;20037;-56
2022/08/03 01:03:38;;;;;;;25.92;7.90;;;;;;;;;;5030018;28;20022;-56
2022/08/03 01:06:27;;;;;;;29.15;8.02;;;;;;;;;;4953667;28;2244033;-57
2022/08/03 01:08:54;;;;;;;31.25;10.30;;;;;;;;;;5032547;28;20107;-54
2022/08/03 01:11:27;;;;;;;30.55;8.90;;;;;;;;;;5030647;28;20375;-55
2022/08/03 01:14:12;;;;;;;31.40;10.30;;;;;;;;;;5032312;28;20461;-56
2022/08/03 01:16:39;;;;;;;29.83;9.15;;;;;;;;;;5032258;28;20485;-54
2022/08/03 01:19:09;;;;;;;27.13;8.90;;;;;;;;;;5031872;28;20026;-58
2022/08/03 01:21:56;;;;;;;35.35;10.05;;;;;;;;;;5032360;28;20546;-58
2022/08/03 01:24:50;;;;;;;29.17;9.13;;;;;;;;;;4991874;28;20064;-58
2022/08/03 01:27:29;;;;;;;37.38;9.13;;;;;;;;;;5031747;28;20030;-54
2022/08/03 01:29:59;;;;;;;33.13;9.27;;;;;;;;;;5032191;28;20036;-54
2022/08/03 01:32:31;;;;;;;30.98;8.93;;;;;;;;;;5031824;28;20033;-55
2022/08/03 01:35:03;;;;;;;36.00;9.13;;;;;;;;;;5036610;28;20033;-60
2022/08/03 01:37:30;;;;;;;;;;;;;;;;;;5039182;28;20116;-60
2022/08/03 01:39:58;;;;;;;39.67;8.95;;;;;;;;;;5031512;28;19905;-58
2022/08/03 01:42:25;;;;;;;40.13;9.73;;;;;;;;;;5023656;28;20119;-48
2022/08/03 01:44:53;;;;;;;31.67;9.10;;;;;;;;;;5008612;28;20475;-58
2022/08/03 01:47:21;;;;;;;24.13;7.85;;;;;;;;;;5010462;28;20041;-54
2022/08/03 01:49:49;;;;;;;24.33;8.07;;;;;;;;;;5013909;28;20018;-56
2022/08/03 01:52:20;;;;;;;32.90;7.32;;;;;;;;;;5023779;28;20045;-52
2022/08/03 01:54:49;;;;;;;28.48;8.07;;;;;;;;;;5029116;28;20021;-51
2022/08/03 01:57:17;;;;;;;25.67;7.93;;;;;;;;;;5016866;28;20083;-55
2022/08/03 01:59:45;;;;;;;21.13;7.75;;;;;;;;;;5025250;28;20037;-52
2022/08/03 02:02:13;;;;;;;24.00;7.75;;;;;;;;;;5011864;28;20076;-53
2022/08/03 02:04:41;;;;;;;22.10;8.18;;;;;;;;;;5031806;28;20034;-50
2022/08/03 02:07:09;;;;;;;28.30;7.53;;;;;;;;;;5031740;28;20495;-50
2022/08/03 02:09:40;;;;;;;23.67;7.05;;;;;;;;;;5032013;28;20082;-52
2022/08/03 02:12:09;;;;;;;25.40;6.43;;;;;;;;;;5031554;28;20021;-54
2022/08/03 02:14:36;;;;;;;22.83;7.30;;;;;;;;;;5031133;28;20021;-49
2022/08/03 02:17:04;;;;;;;19.38;7.38;;;;;;;;;;5031467;28;20387;-56
2022/08/03 02:19:32;;;;;;;25.35;7.07;;;;;;;;;;5033485;28;20087;-53
2022/08/03 02:22:00;;;;;;;24.05;7.20;;;;;;;;;;5029409;28;20125;-53
2022/08/03 02:24:27;;;;;;;20.23;6.72;;;;;;;;;;5029629;28;20510;-53
2022/08/03 02:26:55;;;;;;;25.98;6.80;;;;;;;;;;5031197;28;20506;-54
2022/08/03 02:29:24;;;;;;;20.15;7.05;;;;;;;;;;5026219;28;20112;-51
2022/08/03 02:31:52;;;;;;;25.33;8.15;;;;;;;;;;5010845;28;20025;-54
2022/08/03 02:34:20;;;;;;;21.75;6.35;;;;;;;;;;5036000;28;20040;-51
2022/08/03 02:36:50;;;;;;;19.90;6.60;;;;;;;;;;5035677;28;20033;-51
2022/08/03 02:39:19;;;;;;;23.63;6.53;;;;;;;;;;5035971;28;20036;-54
2022/08/03 02:41:50;;;;;;;17.48;5.57;;;;;;;;;;5035492;28;20038;-53
2022/08/03 02:44:18;;;;;;;13.20;5.65;;;;;;;;;;5035863;28;20029;-49
2022/08/03 02:46:46;;;;;;;14.70;5.45;;;;;;;;;;5035926;28;20033;-50
2022/08/03 02:49:15;;;;;;;14.40;5.43;;;;;;;;;;5035767;28;20029;-53
2022/08/03 02:51:42;;;;;;;14.27;5.10;;;;;;;;;;5018032;28;20420;-51
2022/08/03 02:54:10;;;;;;;15.10;5.35;;;;;;;;;;5035796;28;20386;-51
2022/08/03 02:56:38;;;;;;;13.70;4.95;;;;;;;;;;5035466;28;20052;-50
2022/08/03 02:59:06;;;;;;;16.02;5.30;;;;;;;;;;5035821;28;20079;-50
2022/08/03 03:01:33;;;;;;;15.38;5.18;;;;;;;;;;5035640;28;20395;-49
2022/08/03 03:04:00;;;;;;;13.35;5.10;;;;;;;;;;5035516;28;20072;-49
2022/08/03 03:06:28;;;;;;;11.20;4.75;;;;;;;;;;5035194;28;20554;-51
2022/08/03 03:08:56;;;;;;;15.18;5.05;;;;;;;;;;5035460;28;20026;-49
2022/08/03 03:11:23;;;;;;;12.98;4.75;;;;;;;;;;5035692;28;20049;-51
2022/08/03 03:13:51;;;;;;;14.05;4.65;;;;;;;;;;5035296;28;20430;-50
2022/08/03 03:16:18;;;;;;;11.52;4.55;;;;;;;;;;5035213;28;20029;-49
2022/08/03 03:18:46;;;;;;;11.32;4.63;;;;;;;;;;5035461;28;20026;-49
2022/08/03 03:21:16;;;;;;;11.50;4.22;;;;;;;;;;5035051;28;20450;-53
2022/08/03 03:23:43;;;;;;;14.38;4.57;;;;;;;;;;5035113;28;20150;-49
2022/08/03 03:26:13;;;;;;;11.25;4.90;;;;;;;;;;5017556;28;20471;-49
2022/08/03 03:28:40;;;;;;;10.93;4.35;;;;;;;;;;5034984;28;20033;-50
2022/08/03 03:31:08;;;;;;;11.40;4.00;;;;;;;;;;5034579;28;20034;-49
2022/08/03 03:33:35;;;;;;;10.20;3.90;;;;;;;;;;5034982;28;20069;-50
2022/08/03 03:36:03;;;;;;;9.38;4.30;;;;;;;;;;5035079;28;20057;-49
2022/08/03 03:38:30;;;;;;;7.97;4.25;;;;;;;;;;5034941;28;20033;-50
2022/08/03 03:40:57;;;;;;;10.20;4.15;;;;;;;;;;5034891;28;20511;-51
2022/08/03 03:43:25;;;;;;;7.70;3.65;;;;;;;;;;5035017;28;20032;-49
2022/08/03 03:45:52;;;;;;;7.47;3.88;;;;;;;;;;5034640;28;20025;-50
2022/08/03 03:48:19;;;;;;;10.98;3.75;;;;;;;;;;5034503;28;20034;-50
2022/08/03 03:50:46;;;;;;;9.70;3.85;;;;;;;;;;5034828;28;20483;-53
2022/08/03 03:53:14;;;;;;;7.38;3.65;;;;;;;;;;5034711;28;20025;-53
2022/08/03 03:55:41;;;;;;;9.73;4.13;;;;;;;;;;5034633;28;20021;-52
2022/08/03 03:58:08;;;;;;;8.00;3.97;;;;;;;;;;5034508;28;20033;-50
2022/08/03 04:00:35;;;;;;;7.38;3.55;;;;;;;;;;5034590;28;20083;-50
2022/08/03 04:03:02;;;;;;;8.52;3.72;;;;;;;;;;5034578;28;20021;-52
2022/08/03 04:11:16;;;;;;;9.63;3.53;;;;;;;;;;5034698;28;20087;-51
2022/08/03 04:13:46;;;;;;;8.00;3.30;;;;;;;;;;5034300;28;20025;-51
2022/08/03 04:16:15;;;;;;;7.30;3.45;;;;;;;;;;5034206;28;20071;-50
2022/08/03 04:18:46;;;;;;;6.53;3.40;;;;;;;;;;5034134;28;20399;-50
2022/08/03 04:21:15;;;;;;;8.43;3.60;;;;;;;;;;5034049;28;20471;-52
2022/08/03 04:23:44;;;;;;;7.82;3.22;;;;;;;;;;5033957;28;20334;-50
2022/08/03 04:26:13;;;;;;;7.00;3.17;;;;;;;;;;5034083;28;20036;-50
2022/08/03 04:28:41;;;;;;;9.07;3.80;;;;;;;;;;5034049;28;20087;-52
2022/08/03 04:31:08;;;;;;;5.65;2.97;;;;;;;;;;5034011;28;20028;-51
2022/08/03 04:33:37;;;;;;;5.47;3.05;;;;;;;;;;5034060;28;20028;-50
2022/08/03 04:36:06;;;;;;;4.40;2.70;;;;;;;;;;5033725;28;20550;-51
2022/08/03 04:38:34;;;;;;;6.07;3.20;;;;;;;;;;5016467;28;20057;-53
2022/08/03 04:41:02;;;;;;;6.40;3.00;;;;;;;;;;5033314;28;20029;-54
2022/08/03 04:43:29;;;;;;;5.30;2.72;;;;;;;;;;5033467;28;20042;-53
2022/08/03 04:45:56;;;;;;;4.88;2.75;;;;;;;;;;5033680;28;20026;-52
2022/08/03 04:48:24;;;;;;;5.32;2.80;;;;;;;;;;5033611;28;20505;-51
2022/08/03 04:50:51;;;;;;;6.90;2.75;;;;;;;;;;5033759;28;20029;-52
2022/08/03 04:53:18;;;;;;;5.70;2.88;;;;;;;;;;5033620;28;20168;-50
2022/08/03 04:55:45;;;;;;;6.22;3.03;;;;;;;;;;5033506;28;20045;-53
2022/08/03 04:58:12;;;;;;;5.00;2.58;;;;;;;;;;5033417;28;20044;-50
2022/08/03 05:00:39;;;;;;;4.85;2.65;;;;;;;;;;5033461;28;20041;-50
2022/08/03 05:03:06;;;;;;;4.93;2.40;;;;;;;;;;5033349;28;20125;-50
2022/08/03 05:05:33;;;;;;;5.68;2.42;;;;;;;;;;5033095;28;20052;-50
2022/08/03 05:08:00;;;;;;;4.72;2.22;;;;;;;;;;5033284;28;20037;-50
2022/08/03 05:10:27;;;;;;;4.95;2.65;;;;;;;;;;5033188;28;20352;-50
2022/08/03 05:12:54;;;;;;;4.30;2.28;;;;;;;;;;5033254;28;20068;-50
2022/08/03 05:15:21;;;;;;;4.03;2.80;;;;;;;;;;5033232;28;20032;-54
2022/08/03 05:17:48;;;;;;;3.88;2.38;;;;;;;;;;5032997;28;20101;-50
2022/08/03 05:20:15;;;;;;;3.38;1.90;;;;;;;;;;5033081;28;20033;-49
2022/08/03 05:22:42;;;;;;;4.82;2.50;;;;;;;;;;5033192;28;20041;-51
2022/08/03 05:25:09;;;;;;;4.78;2.60;;;;;;;;;;5032873;28;20022;-54
2022/08/03 05:27:36;;;;;;;4.22;2.53;;;;;;;;;;5033023;28;20029;-53
2022/08/03 05:30:04;;;;;;;4.07;2.30;;;;;;;;;;5032987;28;20479;-52
2022/08/03 05:32:31;;;;;;;3.67;2.33;;;;;;;;;;5032866;28;20108;-50
2022/08/03 05:34:58;;;;;;;3.92;2.58;;;;;;;;;;5032719;28;20030;-51
2022/08/03 05:37:25;;;;;;;3.92;2.22;;;;;;;;;;5032806;28;20026;-50
2022/08/03 05:39:52;;;;;;;3.90;2.35;;;;;;;;;;5032834;28;20045;-52
2022/08/03 05:42:19;;;;;;;2.90;2.20;;;;;;;;;;5032696;28;20068;-49
2022/08/03 05:44:46;;;;;;;3.70;2.50;;;;;;;;;;5032447;28;20106;-53
2022/08/03 05:47:13;;;;;;;3.95;2.40;;;;;;;;;;5032572;28;20040;-53
2022/08/03 05:49:40;;;;;;;5.72;2.30;;;;;;;;;;5032715;28;20025;-50
2022/08/03 05:52:07;;;;;;;3.70;2.22;;;;;;;;;;5032711;28;20072;-52
2022/08/03 05:54:34;;;;;;;3.13;2.05;;;;;;;;;;5032436;28;20026;-50
2022/08/03 05:57:01;;;;;;;3.25;2.00;;;;;;;;;;5032691;28;20059;-54
2022/08/03 05:59:28;;;;;;;4.32;1.92;;;;;;;;;;5032362;28;20029;-49
2022/08/03 06:01:55;;;;;;;3.65;1.92;;;;;;;;;;5030410;28;20083;-54
2022/08/03 06:04:22;;;;;;;2.72;1.83;;;;;;;;;;5032428;28;20021;-54
2022/08/03 06:06:49;;;;;;;3.47;2.38;;;;;;;;;;5031226;28;20103;-51
2022/08/03 06:09:16;;;;;;;4.95;2.00;;;;;;;;;;5031320;28;20036;-54
2022/08/03 06:11:43;;;;;;;3.65;2.10;;;;;;;;;;5032246;28;20558;-51
2022/08/03 06:14:11;;;;;;;3.15;1.75;;;;;;;;;;5032287;28;20018;-54
2022/08/03 06:16:38;;;;;;;2.75;1.75;;;;;;;;;;5032333;28;20507;-53
2022/08/03 06:19:05;;;;;;;4.05;2.20;;;;;;;;;;5032262;28;20085;-49
2022/08/03 06:21:32;;;;;;;3.03;2.13;;;;;;;;;;5032141;28;20025;-51
2022/08/03 06:23:58;;;;;;;3.70;2.00;;;;;;;;;;5032407;28;20491;-54
2022/08/03 06:26:27;;;;;;;3.75;1.95;;;;;;;;;;5032168;28;20025;-53
2022/08/03 06:28:54;;;;;;;2.75;1.63;;;;;;;;;;5032257;28;20033;-50
2022/08/03 06:31:22;;;;;;;2.33;1.52;;;;;;;;;;5032296;28;20486;-49
2022/08/03 06:33:49;;;;;;;3.00;1.90;;;;;;;;;;5032038;28;20060;-49
2022/08/03 06:36:16;;;;;;;2.95;1.67;;;;;;;;;;5032163;28;20053;-51
2022/08/03 06:38:43;;;;;;;2.70;1.60;;;;;;;;;;5032139;28;20034;-51
2022/08/03 06:41:10;;;;;;;5.97;1.92;;;;;;;;;;5032158;28;20025;-49
2022/08/03 06:43:37;;;;;;;2.92;1.48;;;;;;;;;;5032195;28;20029;-51
2022/08/03 06:46:04;;;;;;;2.95;1.77;;;;;;;;;;5031804;28;20560;-55
2022/08/03 06:48:32;;;;;;;3.13;1.80;;;;;;;;;;5032169;28;20467;-52
2022/08/03 06:50:59;;;;;;;3.78;2.08;;;;;;;;;;5014276;28;20045;-51
2022/08/03 06:53:26;;;;;;;3.13;1.60;;;;;;;;;;5032066;28;20115;-49
2022/08/03 06:55:53;;;;;;;4.65;2.00;;;;;;;;;;5031992;28;20486;-49
2022/08/03 06:58:20;;;;;;;2.15;1.50;;;;;;;;;;5032064;28;20122;-51
2022/08/03 07:00:47;;;;;;;2.55;1.63;;;;;;;;;;5031874;28;20388;-50
2022/08/03 07:03:14;;;;;;;2.55;1.63;;;;;;;;;;5032186;28;20030;-51
2022/08/03 07:05:42;;;;;;;2.63;1.30;;;;;;;;;;5033787;28;20049;-52
2022/08/03 07:08:09;;;;;;;1.80;1.30;;;;;;;;;;5035374;28;20040;-51
2022/08/03 07:10:36;;;;;;;1.98;1.30;;;;;;;;;;5035607;28;20036;-51
2022/08/03 07:13:03;;;;;;;2.33;1.45;;;;;;;;;;5035539;28;20025;-51
2022/08/03 07:15:31;;;;;;;2.95;1.60;;;;;;;;;;5035337;28;20376;-51
2022/08/03 07:17:58;;;;;;;2.63;1.60;;;;;;;;;;5035201;28;20446;-49
2022/08/03 07:20:25;;;;;;;1.58;1.35;;;;;;;;;;5035388;28;20028;-50
2022/08/03 07:22:52;;;;;;;2.80;1.55;;;;;;;;;;5035302;28;20471;-50
2022/08/03 07:25:19;;;;;;;2.08;1.30;;;;;;;;;;5035280;28;20021;-52
2022/08/03 07:27:46;;;;;;;1.80;1.48;;;;;;;;;;5035245;28;20091;-53
2022/08/03 07:30:14;;;;;;;2.45;1.48;;;;;;;;;;5035107;28;20029;-51
2022/08/03 07:32:41;;;;;;;1.95;1.25;;;;;;;;;;5034983;28;20030;-50
2022/08/03 07:35:09;;;;;;;2.25;1.27;;;;;;;;;;5035008;28;20026;-52
2022/08/03 07:37:37;;;;;;;2.58;1.45;;;;;;;;;;5035269;28;20032;-50
2022/08/03 07:40:04;;;;;;;1.60;1.38;;;;;;;;;;5035106;28;20041;-50
2022/08/03 07:42:31;;;;;;;2.55;1.48;;;;;;;;;;5034816;28;20373;-50
2022/08/03 07:44:59;;;;;;;2.50;1.50;;;;;;;;;;5034802;28;20032;-52
2022/08/03 07:47:27;;;;;;;1.83;1.40;;;;;;;;;;5034768;28;20024;-50
2022/08/03 07:49:55;;;;;;;2.25;1.50;;;;;;;;;;5034903;28;20017;-51
2022/08/03 07:55:07;;;;;;;1.67;1.30;;;;;;;;;;5034666;28;20044;-51
2022/08/03 07:57:35;;;;;;;2.90;1.35;;;;;;;;;;5034469;28;20380;-49
2022/08/03 08:00:02;;;;;;;1.98;1.33;;;;;;;;;;5034576;28;20035;-49
2022/08/03 08:02:29;;;;;;;1.95;1.23;;;;;;;;;;5034501;28;20406;-50
2022/08/03 08:04:56;;;;;;;2.45;1.20;;;;;;;;;;5034429;28;20100;-52
2022/08/03 08:07:24;;;;;;;2.00;1.35;;;;;;;;;;5034076;28;20399;-50
2022/08/03 08:09:51;;;;;;;1.98;1.23;;;;;;;;;;5034465;28;20103;-49
2022/08/03 08:12:19;;;;;;;1.73;1.00;;;;;;;;;;5034393;28;20037;-51
2022/08/03 08:14:46;;;;;;;1.60;1.08;;;;;;;;;;5034318;28;20030;-49
2022/08/03 08:17:13;;;;;;;1.65;1.10;;;;;;;;;;5032926;28;20459;-51
2022/08/03 08:19:40;;;;;;;1.05;0.90;;;;;;;;;;5034285;28;20029;-52
2022/08/03 08:22:07;;;;;;;1.67;1.15;;;;;;;;;;5034188;28;20117;-51
2022/08/03 08:24:34;;;;;;;1.52;1.20;;;;;;;;;;5016349;28;20021;-51
2022/08/03 08:27:01;;;;;;;1.73;1.17;;;;;;;;;;5033963;28;20030;-49
2022/08/03 08:29:28;;;;;;;1.08;0.90;;;;;;;;;;5034081;28;20029;-51
2022/08/03 08:31:55;;;;;;;1.35;1.02;;;;;;;;;;5034050;28;20026;-50
2022/08/03 08:34:21;;;;;;;1.08;0.98;;;;;;;;;;5034218;28;20101;-51
2022/08/03 08:36:48;;;;;;;1.60;1.10;;;;;;;;;;5034065;28;20018;-50
2022/08/03 08:39:15;;;;;;;1.77;1.08;;;;;;;;;;5033708;28;20026;-51
2022/08/03 08:41:42;;;;;;;1.15;1.05;;;;;;;;;;5016009;28;20521;-50
2022/08/03 08:44:09;;;;;;;2.03;1.10;;;;;;;;;;5033652;28;20045;-50
2022/08/03 08:46:37;;;;;;;1.27;0.82;;;;;;;;;;5033787;28;20040;-50
2022/08/03 08:49:04;;;;;;;2.08;0.90;;;;;;;;;;5033562;28;20106;-53
2022/08/03 08:51:33;;;;;;;2.25;1.00;;;;;;;;;;5033703;28;20029;-50
2022/08/03 08:54:03;;;;;;;1.83;1.10;;;;;;;;;;5033508;28;20484;-52
2022/08/03 08:56:30;;;;;;;1.70;1.10;;;;;;;;;;5033467;28;20029;-52
2022/08/03 08:58:59;;;;;;;0.88;0.82;;;;;;;;;;5020203;28;20926;-56
2022/08/03 09:01:26;;;;;;;1.35;1.00;;;;;;;;;;5012781;28;20046;-52
2022/08/03 09:03:53;;;;;;;1.50;1.02;;;;;;;;;;5013639;28;20036;-51
2022/08/03 09:06:23;;;;;;;2.17;1.02;;;;;;;;;;5013336;28;20168;-52
2022/08/03 09:08:51;;;;;;;1.95;1.10;;;;;;;;;;5013575;28;20403;-53
2022/08/03 09:11:21;;;;;;;3.33;1.05;;;;;;;;;;5013364;28;20502;-51
2022/08/03 09:13:49;;;;;;;1.80;1.20;;;;;;;;;;5013487;28;20029;-50
2022/08/03 09:16:17;;;;;;;1.65;1.05;;;;;;;;;;5013316;28;20038;-52
2022/08/03 09:18:45;;;;;;;3.20;1.20;;;;;;;;;;5013537;28;20101;-54
2022/08/03 09:21:13;;;;;;;1.05;0.95;;;;;;;;;;5013126;28;20038;-51
2022/08/03 09:23:55;;;;;;;1.58;1.00;;;;;;;;;;5013203;28;20038;-50
2022/08/03 09:26:23;;;;;;;1.20;1.10;;;;;;;;;;5013285;28;20022;-51
2022/08/03 09:29:01;;;;;;;2.40;1.00;;;;;;;;;;5012992;28;20030;-52
2022/08/03 09:31:31;;;;;;;1.55;0.80;;;;;;;;;;5013359;28;20121;-53
2022/08/03 09:33:59;;;;;;;1.08;0.75;;;;;;;;;;5013109;28;20053;-55
2022/08/03 09:36:40;;;;;;;0.93;0.75;;;;;;;;;;5013204;28;20042;-54
2022/08/03 09:39:10;;;;;;;1.88;0.98;;;;;;;;;;5012215;28;20034;-53
2022/08/03 09:41:40;;;;;;;1.70;1.00;;;;;;;;;;5012702;28;20133;-52
2022/08/03 09:44:07;;;;;;;2.45;1.00;;;;;;;;;;5012576;28;20043;-51
2022/08/03 09:46:52;;;;;;;1.60;1.02;;;;;;;;;;5012566;28;20025;-55
2022/08/03 09:49:19;;;;;;;2.08;0.95;;;;;;;;;;5012825;28;20046;-53
2022/08/03 09:51:46;;;;;;;1.40;1.02;;;;;;;;;;5013025;28;20036;-55
2022/08/03 09:54:13;;;;;;;1.65;0.70;;;;;;;;;;5012864;28;20037;-56
2022/08/03 09:56:40;;;;;;;3.55;0.85;;;;;;;;;;5012793;28;20109;-56
2022/08/03 09:59:07;;;;;;;1.10;0.90;;;;;;;;;;5012866;28;20038;-55
2022/08/03 10:01:34;;;;;;;1.98;0.95;;;;;;;;;;5012823;28;20048;-54
2022/08/03 10:04:01;;;;;;;1.73;0.88;;;;;;;;;;5012687;28;20030;-55
2022/08/03 10:06:28;;;;;;;1.40;0.80;;;;;;;;;;5012734;28;20107;-54
2022/08/03 10:09:09;;;;;;;1.50;1.00;;;;;;;;;;5012591;28;20034;-53
2022/08/03 10:11:36;;;;;;;1.52;0.88;;;;;;;;;;5012780;28;20022;-56
2022/08/03 10:14:07;;;;;;;1.58;0.90;;;;;;;;;;5012625;28;20038;-54
2022/08/03 10:16:38;;;;;;;2.00;0.70;;;;;;;;;;5012489;28;20036;-54
2022/08/03 10:19:06;;;;;;;0.80;0.60;;;;;;;;;;5012664;28;20506;-55
2022/08/03 10:21:34;;;;;;;2.72;0.90;;;;;;;;;;5012493;28;20534;-55
2022/08/03 10:24:05;;;;;;;1.33;0.80;;;;;;;;;;5012619;28;20157;-55
2022/08/03 10:26:36;;;;;;;0.93;0.80;;;;;;;;;;5012414;28;20025;-55
2022/08/03 10:29:07;;;;;;;1.73;0.60;;;;;;;;;;5012570;28;20104;-51
2022/08/03 10:31:45;;;;;;;1.20;1.10;;;;;;;;;;5012511;28;20483;-55
2022/08/03 10:34:22;;;;;;;1.73;0.88;;;;;;;;;;5012415;28;20423;-53
2022/08/03 10:36:49;;;;;;;0.75;0.75;;;;;;;;;;5012420;28;20361;-55
2022/08/03 10:39:18;;;;;;;0.90;0.70;;;;;;;;;;5012537;28;20030;-55
2022/08/03 10:41:46;;;;;;;0.77;0.68;;;;;;;;;;5016295;28;20099;-54
2022/08/03 10:44:16;;;;;;;1.40;0.77;;;;;;;;;;5016232;28;20026;-53
2022/08/03 10:46:44;;;;;;;1.20;0.80;;;;;;;;;;5016343;28;20026;-55
2022/08/03 10:49:15;;;;;;;0.98;0.60;;;;;;;;;;5016082;28;20018;-53
2022/08/03 10:51:43;;;;;;;1.00;0.77;;;;;;;;;;5016159;28;20399;-54
2022/08/03 10:54:29;;;;;;;1.00;0.68;;;;;;;;;;5016095;28;20029;-51
2022/08/03 10:59:49;;;;;;;1.05;0.77;;;;;;;;;;5016068;28;20403;-53
2022/08/03 11:02:16;;;;;;;1.27;0.80;;;;;;;;;;5015660;28;20487;-54
2022/08/03 11:04:44;;;;;;;1.10;0.77;;;;;;;;;;5015756;28;20030;-53
2022/08/03 11:07:17;;;;;;;1.48;0.70;;;;;;;;;;4998147;28;20042;-53
2022/08/03 11:09:46;;;;;;;1.17;0.90;;;;;;;;;;5015740;28;20076;-51
2022/08/03 11:12:22;;;;;;;0.70;0.70;;;;;;;;;;5016127;28;20046;-53
2022/08/03 11:14:50;;;;;;;0.70;0.50;;;;;;;;;;5022434;28;20395;-52
2022/08/03 11:17:17;;;;;;;0.95;0.77;;;;;;;;;;5035247;28;20076;-51
2022/08/03 11:19:48;;;;;;;1.00;0.82;;;;;;;;;;5035473;28;20040;-51
2022/08/03 11:22:15;;;;;;;1.67;0.80;;;;;;;;;;5035234;28;20045;-49
2022/08/03 11:24:45;;;;;;;6.25;1.02;;;;;;;;;;5035065;28;20100;-50
2022/08/03 11:27:17;;;;;;;2.63;1.00;;;;;;;;;;5035226;28;20368;-51
2022/08/03 11:30:01;;;;;;;2.40;0.80;;;;;;;;;;5032169;28;20029;-54
2022/08/03 11:32:40;;;;;;;4.53;0.90;;;;;;;;;;5035025;28;20116;-52
2022/08/03 11:35:08;;;;;;;3.22;1.05;;;;;;;;;;5027035;28;20785;-52
2022/08/03 11:37:36;;;;;;;3.05;1.00;;;;;;;;;;5018877;28;20117;-49
2022/08/03 11:40:03;;;;;;;1.60;0.80;;;;;;;;;;5029276;28;20039;-51
2022/08/03 11:42:34;;;;;;;1.98;1.05;;;;;;;;;;5034832;28;20037;-55
2022/08/03 11:45:01;;;;;;;1.98;1.23;;;;;;;;;;5031427;28;20532;-51
2022/08/03 11:47:29;;;;;;;3.42;1.40;;;;;;;;;;5016755;28;20030;-53
2022/08/03 11:49:57;;;;;;;4.50;1.40;;;;;;;;;;5016598;28;20079;-51
2022/08/03 11:52:25;;;;;;;7.50;1.13;;;;;;;;;;5029524;28;20782;-55
2022/08/03 11:54:53;;;;;;;3.75;1.17;;;;;;;;;;5034365;28;20116;-52
2022/08/03 11:57:31;;;;;;;3.08;1.20;;;;;;;;;;5031320;28;20068;-55
2022/08/03 11:59:58;;;;;;;3.13;1.13;;;;;;;;;;5032502;28;20037;-50
2022/08/03 12:02:25;;;;;;;4.15;0.90;;;;;;;;;;5034631;28;20072;-50
2022/08/03 12:04:56;;;;;;;2.38;1.00;;;;;;;;;;5034593;28;20025;-50
2022/08/03 12:07:26;;;;;;;4.10;1.25;;;;;;;;;;5033555;28;20050;-52
2022/08/03 12:10:10;;;;;;;3.95;1.27;;;;;;;;;;5034352;28;20077;-50
2022/08/03 12:12:38;;;;;;;1.75;0.90;;;;;;;;;;5034459;28;20476;-51
2022/08/03 12:15:05;;;;;;;2.28;0.90;;;;;;;;;;5034213;28;20105;-50
2022/08/03 12:17:35;;;;;;;3.10;0.95;;;;;;;;;;5034011;28;20025;-55
2022/08/03 12:20:02;;;;;;;2.08;1.10;;;;;;;;;;5031582;28;20109;-54
2022/08/03 12:22:33;;;;;;;2.75;0.85;;;;;;;;;;5033561;28;20099;-50
2022/08/03 12:25:00;;;;;;;3.42;1.10;;;;;;;;;;5034185;28;20029;-52
2022/08/03 12:27:30;;;;;;;2.53;1.20;;;;;;;;;;5034183;28;20057;-51
2022/08/03 12:29:58;;;;;;;1.92;1.05;;;;;;;;;;5033641;28;20032;-53
2022/08/03 12:32:27;;;;;;;3.20;1.20;;;;;;;;;;5016231;28;20693;-52
2022/08/03 12:34:57;;;;;;;3.05;1.10;;;;;;;;;;5033791;28;20104;-56
2022/08/03 12:37:25;;;;;;;3.38;1.20;;;;;;;;;;5033979;28;20025;-54
2022/08/03 12:39:52;;;;;;;3.13;1.30;;;;;;;;;;5033694;28;20084;-50
2022/08/03 12:42:19;;;;;;;1.38;0.80;;;;;;;;;;5033549;28;20483;-50
2022/08/03 12:44:47;;;;;;;4.45;1.08;;;;;;;;;;5033655;28;20100;-49
2022/08/03 12:47:14;;;;;;;3.30;0.80;;;;;;;;;;5033387;28;20034;-52
2022/08/03 12:49:45;;;;;;;2.47;1.05;;;;;;;;;;5033012;28;20021;-52
2022/08/03 12:52:13;;;;;;;1.40;0.80;;;;;;;;;;5033205;28;20032;-54
2022/08/03 12:54:40;;;;;;;2.75;1.40;;;;;;;;;;5033317;28;20111;-49
2022/08/03 12:57:13;;;;;;;2.15;1.20;;;;;;;;;;5033521;28;20117;-49
2022/08/03 12:59:47;;;;;;;4.55;1.02;;;;;;;;;;5014970;28;20118;-53
2022/08/03 13:02:15;;;;;;;2.17;0.90;;;;;;;;;;5030267;28;20041;-56
2022/08/03 13:04:42;;;;;;;2.70;1.10;;;;;;;;;;5032777;28;20130;-54
2022/08/03 13:07:09;;;;;;;2.53;0.93;;;;;;;;;;5032797;28;20499;-51
2022/08/03 13:09:47;;;;;;;2.65;0.90;;;;;;;;;;5033108;28;20560;-52
2022/08/03 13:12:13;;;;;;;1.80;1.05;;;;;;;;;;5032701;28;20025;-54
2022/08/03 13:14:44;;;;;;;2.35;1.17;;;;;;;;;;5033067;28;20025;-54
2022/08/03 13:17:11;;;;;;;2.97;0.85;;;;;;;;;;5032797;28;20025;-49
2022/08/03 13:19:39;;;;;;;1.73;0.73;;;;;;;;;;5032421;28;20033;-50
2022/08/03 13:22:13;;;;;;;3.42;1.17;;;;;;;;;;5032356;28;20029;-54
2022/08/03 13:24:41;;;;;;;5.15;1.35;;;;;;;;;;5032308;28;20029;-52
2022/08/03 13:27:08;;;;;;;3.30;1.15;;;;;;;;;;5032812;28;20025;-53
2022/08/03 13:29:35;;;;;;;3.05;1.13;;;;;;;;;;5032938;28;20108;-51
2022/08/03 13:32:02;;;;;;;3.08;1.10;;;;;;;;;;5032155;28;20025;-54
2022/08/03 13:34:29;;;;;;;4.80;1.17;;;;;;;;;;5032480;28;20438;-50
2022/08/03 13:36:56;;;;;;;7.15;1.67;;;;;;;;;;5028503;28;20104;-55
2022/08/03 13:39:23;;;;;;;2.65;1.13;;;;;;;;;;5012720;28;20040;-59
2022/08/03 13:41:51;;;;;;;4.97;1.33;;;;;;;;;;5021127;28;20045;-56
2022/08/03 13:44:19;;;;;;;5.88;1.40;;;;;;;;;;5032310;28;20065;-56
2022/08/03 13:46:46;;;;;;;3.78;1.30;;;;;;;;;;5031302;28;20021;-54
2022/08/03 13:49:14;;;;;;;7.85;1.13;;;;;;;;;;5030829;28;20041;-57
2022/08/03 13:51:41;;;;;;;3.25;1.33;;;;;;;;;;5022460;28;20388;-52
2022/08/03 13:54:08;;;;;;;7.78;1.30;;;;;;;;;;5023040;28;20117;-51
2022/08/03 13:56:35;;;;;;;8.85;1.38;;;;;;;;;;5027632;28;20522;-53
2022/08/03 13:59:02;;;;;;;8.40;1.67;;;;;;;;;;5020606;28;20051;-60
2022/08/03 14:01:29;;;;;;;9.68;1.40;;;;;;;;;;5021377;28;20496;-55
2022/08/03 14:03:57;;;;;;;6.40;1.30;;;;;;;;;;5021532;28;20041;-54
2022/08/03 14:06:24;;;;;;;6.70;1.35;;;;;;;;;;5013452;28;20057;-58
2022/08/03 14:08:51;;;;;;;3.85;1.20;;;;;;;;;;5030936;28;20083;-60
2022/08/03 14:11:18;;;;;;;5.38;1.20;;;;;;;;;;5031434;28;20041;-57
2022/08/03 14:13:45;;;;;;;13.02;1.30;;;;;;;;;;5032310;28;20049;-53
2022/08/03 14:16:12;;;;;;;1.90;1.13;;;;;;;;;;5035979;28;20074;-50
2022/08/03 14:18:40;;;;;;;10.43;1.27;;;;;;;;;;5034550;28;20187;-52
2022/08/03 14:21:07;;;;;;;5.43;1.10;;;;;;;;;;5034420;28;20039;-54
2022/08/03 14:23:36;;;;;;;2.45;1.20;;;;;;;;;;5035929;28;20025;-54
2022/08/03 14:26:03;;;;;;;9.25;1.40;;;;;;;;;;5035636;28;20043;-56
2022/08/03 14:28:30;;;;;;;7.43;1.48;;;;;;;;;;5017908;28;20414;-50
2022/08/03 14:30:58;;;;;;;4.90;1.48;;;;;;;;;;5034415;28;20028;-54
2022/08/03 14:33:27;;;;;;;7.75;1.70;;;;;;;;;;5032841;28;20029;-49
2022/08/03 14:35:54;;;;;;;7.00;1.67;;;;;;;;;;5025562;28;20037;-57
2022/08/03 14:38:22;;;;;;;8.35;1.90;;;;;;;;;;5027078;28;20033;-56
2022/08/03 14:40:49;;;;;;;8.82;1.77;;;;;;;;;;5019304;28;20080;-54
2022/08/03 14:43:20;;;;;;;8.55;1.70;;;;;;;;;;5003077;28;20034;-56
2022/08/03 14:45:50;;;;;;;8.10;1.80;;;;;;;;;;5020685;28;20448;-57
2022/08/03 14:48:18;;;;;;;9.70;1.40;;;;;;;;;;5020143;28;20108;-57
2022/08/03 14:50:45;;;;;;;12.45;2.00;;;;;;;;;;5026715;28;20037;-55
2022/08/03 14:53:12;;;;;;;10.40;1.60;;;;;;;;;;5015612;28;20026;-61
2022/08/03 14:55:39;;;;;;;4.72;1.33;;;;;;;;;;5015980;28;20037;-60
2022/08/03 14:58:06;;;;;;;5.03;1.73;;;;;;;;;;5015701;28;20088;-58
2022/08/03 15:00:33;;;;;;;9.65;1.67;;;;;;;;;;5014438;28;20030;-53